sensor_id;sensor_type;location;lat;lon;timestamp;pressure;altitude;pressure_sealevel;temperature;humidity
44697;BME280;57264;47.480;19.354;2024-01-11T00:00:40;100358.31;;;-6.07;80.12
44697;BME280;57264;47.480;19.354;2024-01-11T00:03:06;100354.97;;;-6.22;80.29
44697;BME280;57264;47.480;19.354;2024-01-11T00:05:31;100351.50;;;-6.40;81.09
44697;BME280;57264;47.480;19.354;2024-01-11T00:07:57;100353.56;;;-6.33;81.12
44697;BME280;57264;47.480;19.354;2024-01-11T00:10:22;100350.78;;;-6.22;81.88
44697;BME280;57264;47.480;19.354;2024-01-11T00:12:48;100352.31;;;-6.25;81.95
44697;BME280;57264;47.480;19.354;2024-01-11T00:15:14;100357.25;;;-6.27;81.88
44697;BME280;57264;47.480;19.354;2024-01-11T00:17:39;100360.59;;;-6.28;81.79
44697;BME280;57264;47.480;19.354;2024-01-11T00:20:06;100357.44;;;-6.24;82.38
44697;BME280;57264;47.480;19.354;2024-01-11T00:22:31;100359.91;;;-6.25;82.05
44697;BME280;57264;47.480;19.354;2024-01-11T00:24:57;100350.94;;;-6.35;81.80
44697;BME280;57264;47.480;19.354;2024-01-11T00:27:23;100351.09;;;-6.48;82.19
44697;BME280;57264;47.480;19.354;2024-01-11T00:29:48;100343.81;;;-6.42;82.34
44697;BME280;57264;47.480;19.354;2024-01-11T00:32:14;100345.59;;;-6.25;82.85
44697;BME280;57264;47.480;19.354;2024-01-11T00:34:39;100344.00;;;-6.23;82.80
44697;BME280;57264;47.480;19.354;2024-01-11T00:37:05;100344.00;;;-6.39;82.46
44697;BME280;57264;47.480;19.354;2024-01-11T00:39:31;100349.13;;;-6.37;82.43
44697;BME280;57264;47.480;19.354;2024-01-11T00:41:56;100340.78;;;-6.36;82.86
44697;BME280;57264;47.480;19.354;2024-01-11T00:44:22;100333.72;;;-6.42;82.99
44697;BME280;57264;47.480;19.354;2024-01-11T00:46:48;100332.53;;;-6.65;83.40
44697;BME280;57264;47.480;19.354;2024-01-11T00:49:13;100339.38;;;-6.62;83.47
44697;BME280;57264;47.480;19.354;2024-01-11T00:51:39;100338.44;;;-6.64;83.88
44697;BME280;57264;47.480;19.354;2024-01-11T00:54:04;100327.19;;;-6.70;84.08
44697;BME280;57264;47.480;19.354;2024-01-11T00:56:30;100332.03;;;-6.89;84.31
44697;BME280;57264;47.480;19.354;2024-01-11T00:58:55;100327.06;;;-7.04;84.41
44697;BME280;57264;47.480;19.354;2024-01-11T01:01:21;100326.69;;;-6.95;84.63
44697;BME280;57264;47.480;19.354;2024-01-11T01:03:46;100324.56;;;-6.87;84.46
44697;BME280;57264;47.480;19.354;2024-01-11T01:06:12;100321.25;;;-6.86;85.37
44697;BME280;57264;47.480;19.354;2024-01-11T01:08:38;100311.16;;;-6.86;85.44
44697;BME280;57264;47.480;19.354;2024-01-11T01:11:03;100316.75;;;-6.92;85.29
44697;BME280;57264;47.480;19.354;2024-01-11T01:13:29;100308.59;;;-7.03;85.53
44697;BME280;57264;47.480;19.354;2024-01-11T01:15:55;100318.72;;;-6.86;85.23
44697;BME280;57264;47.480;19.354;2024-01-11T01:18:20;100314.34;;;-6.74;86.06
44697;BME280;57264;47.480;19.354;2024-01-11T01:20:46;100303.91;;;-6.80;86.15
44697;BME280;57264;47.480;19.354;2024-01-11T01:23:11;100302.63;;;-6.88;85.80
44697;BME280;57264;47.480;19.354;2024-01-11T01:25:37;100285.66;;;-6.91;85.81
44697;BME280;57264;47.480;19.354;2024-01-11T01:28:02;100299.63;;;-6.81;85.96
44697;BME280;57264;47.480;19.354;2024-01-11T01:30:28;100293.47;;;-6.86;85.97
44697;BME280;57264;47.480;19.354;2024-01-11T01:32:54;100287.31;;;-6.91;86.28
44697;BME280;57264;47.480;19.354;2024-01-11T01:35:19;100287.22;;;-6.93;86.06
44697;BME280;57264;47.480;19.354;2024-01-11T01:37:45;100288.19;;;-6.91;86.15
44697;BME280;57264;47.480;19.354;2024-01-11T01:40:13;100283.59;;;-6.98;86.60
44697;BME280;57264;47.480;19.354;2024-01-11T01:42:43;100285.72;;;-6.89;87.00
44697;BME280;57264;47.480;19.354;2024-01-11T01:45:09;100282.53;;;-7.02;86.58
44697;BME280;57264;47.480;19.354;2024-01-11T01:47:36;100283.59;;;-6.98;87.04
44697;BME280;57264;47.480;19.354;2024-01-11T01:50:02;100276.88;;;-6.98;86.74
44697;BME280;57264;47.480;19.354;2024-01-11T01:52:28;100273.50;;;-6.98;87.04
44697;BME280;57264;47.480;19.354;2024-01-11T01:54:55;100273.53;;;-7.13;86.97
44697;BME280;57264;47.480;19.354;2024-01-11T01:57:22;100266.25;;;-6.92;87.04
44697;BME280;57264;47.480;19.354;2024-01-11T01:59:49;100268.47;;;-6.82;86.59
44697;BME280;57264;47.480;19.354;2024-01-11T02:02:17;100267.22;;;-6.74;86.60
44697;BME280;57264;47.480;19.354;2024-01-11T02:04:42;100267.84;;;-6.61;86.23
44697;BME280;57264;47.480;19.354;2024-01-11T02:07:08;100254.75;;;-6.54;86.32
44697;BME280;57264;47.480;19.354;2024-01-11T02:09:35;100254.97;;;-6.50;85.72
44697;BME280;57264;47.480;19.354;2024-01-11T02:12:02;100253.81;;;-6.40;85.56
44697;BME280;57264;47.480;19.354;2024-01-11T02:14:28;100247.72;;;-6.27;85.29
44697;BME280;57264;47.480;19.354;2024-01-11T02:16:54;100242.28;;;-6.35;84.48
44697;BME280;57264;47.480;19.354;2024-01-11T02:19:20;100239.59;;;-6.38;84.44
44697;BME280;57264;47.480;19.354;2024-01-11T02:21:46;100231.75;;;-6.26;84.20
44697;BME280;57264;47.480;19.354;2024-01-11T02:24:14;100228.97;;;-6.14;84.18
44697;BME280;57264;47.480;19.354;2024-01-11T02:27:02;100228.56;;;-6.06;83.94
44697;BME280;57264;47.480;19.354;2024-01-11T02:29:29;100220.69;;;-5.94;83.37
44697;BME280;57264;47.480;19.354;2024-01-11T02:31:56;100220.41;;;-6.00;83.17
44697;BME280;57264;47.480;19.354;2024-01-11T02:34:26;100213.63;;;-6.01;83.08
44697;BME280;57264;47.480;19.354;2024-01-11T02:36:53;100214.91;;;-6.09;82.93
44697;BME280;57264;47.480;19.354;2024-01-11T02:39:20;100210.34;;;-6.16;82.90
44697;BME280;57264;47.480;19.354;2024-01-11T02:41:48;100203.63;;;-6.16;83.26
44697;BME280;57264;47.480;19.354;2024-01-11T02:44:15;100209.38;;;-6.19;83.44
44697;BME280;57264;47.480;19.354;2024-01-11T02:46:40;100202.53;;;-6.21;83.56
44697;BME280;57264;47.480;19.354;2024-01-11T02:49:06;100201.81;;;-6.19;83.30
44697;BME280;57264;47.480;19.354;2024-01-11T02:51:32;100188.72;;;-6.28;83.85
44697;BME280;57264;47.480;19.354;2024-01-11T02:53:57;100188.91;;;-6.07;83.41
44697;BME280;57264;47.480;19.354;2024-01-11T02:56:23;100177.75;;;-6.10;83.07
44697;BME280;57264;47.480;19.354;2024-01-11T02:58:49;100182.88;;;-6.27;83.09
44697;BME280;57264;47.480;19.354;2024-01-11T03:01:14;100186.91;;;-6.30;83.70
44697;BME280;57264;47.480;19.354;2024-01-11T03:03:40;100179.03;;;-6.36;83.53
44697;BME280;57264;47.480;19.354;2024-01-11T03:06:05;100170.84;;;-6.49;84.09
44697;BME280;57264;47.480;19.354;2024-01-11T03:08:31;100172.94;;;-6.40;83.66
44697;BME280;57264;47.480;19.354;2024-01-11T03:10:57;100174.84;;;-6.36;83.92
44697;BME280;57264;47.480;19.354;2024-01-11T03:13:23;100168.38;;;-6.47;84.13
44697;BME280;57264;47.480;19.354;2024-01-11T03:15:48;100163.16;;;-6.50;84.10
44697;BME280;57264;47.480;19.354;2024-01-11T03:18:14;100164.75;;;-6.52;84.16
44697;BME280;57264;47.480;19.354;2024-01-11T03:20:39;100159.38;;;-6.58;84.40
44697;BME280;57264;47.480;19.354;2024-01-11T03:23:05;100157.59;;;-6.61;84.39
44697;BME280;57264;47.480;19.354;2024-01-11T03:25:31;100153.53;;;-6.57;84.33
44697;BME280;57264;47.480;19.354;2024-01-11T03:27:58;100151.28;;;-6.69;84.73
44697;BME280;57264;47.480;19.354;2024-01-11T03:30:24;100149.38;;;-6.73;84.79
44697;BME280;57264;47.480;19.354;2024-01-11T03:32:49;100145.69;;;-6.80;84.79
44697;BME280;57264;47.480;19.354;2024-01-11T03:35:15;100149.75;;;-6.65;84.85
44697;BME280;57264;47.480;19.354;2024-01-11T03:37:41;100154.28;;;-6.60;84.67
44697;BME280;57264;47.480;19.354;2024-01-11T03:40:06;100138.78;;;-6.66;84.68
44697;BME280;57264;47.480;19.354;2024-01-11T03:42:32;100146.16;;;-6.71;84.96
44697;BME280;57264;47.480;19.354;2024-01-11T03:44:58;100127.69;;;-6.86;85.40
44697;BME280;57264;47.480;19.354;2024-01-11T03:47:23;100124.88;;;-6.92;85.42
44697;BME280;57264;47.480;19.354;2024-01-11T03:49:49;100125.97;;;-7.03;85.16
44697;BME280;57264;47.480;19.354;2024-01-11T03:52:14;100132.13;;;-7.14;85.34
44697;BME280;57264;47.480;19.354;2024-01-11T03:54:40;100128.00;;;-7.29;85.46
44697;BME280;57264;47.480;19.354;2024-01-11T03:57:05;100131.69;;;-7.38;85.24
44697;BME280;57264;47.480;19.354;2024-01-11T03:59:32;100128.50;;;-7.20;86.06
44697;BME280;57264;47.480;19.354;2024-01-11T04:01:57;100121.22;;;-7.13;86.10
44697;BME280;57264;47.480;19.354;2024-01-11T04:04:23;100120.28;;;-7.15;86.46
44697;BME280;57264;47.480;19.354;2024-01-11T04:06:49;100122.66;;;-7.02;86.70
44697;BME280;57264;47.480;19.354;2024-01-11T04:09:15;100135.72;;;-6.93;86.40
44697;BME280;57264;47.480;19.354;2024-01-11T04:11:40;100132.59;;;-7.05;86.43
44697;BME280;57264;47.480;19.354;2024-01-11T04:14:06;100128.25;;;-6.91;86.64
44697;BME280;57264;47.480;19.354;2024-01-11T04:16:32;100126.91;;;-7.01;86.46
44697;BME280;57264;47.480;19.354;2024-01-11T04:18:57;100133.84;;;-6.97;86.65
44697;BME280;57264;47.480;19.354;2024-01-11T04:21:24;100130.78;;;-6.91;86.72
44697;BME280;57264;47.480;19.354;2024-01-11T04:23:50;100127.53;;;-6.89;86.55
44697;BME280;57264;47.480;19.354;2024-01-11T04:26:17;100119.66;;;-6.95;86.74
44697;BME280;57264;47.480;19.354;2024-01-11T04:28:44;100123.84;;;-6.96;86.80
44697;BME280;57264;47.480;19.354;2024-01-11T04:31:10;100131.19;;;-7.00;86.42
44697;BME280;57264;47.480;19.354;2024-01-11T04:33:36;100126.66;;;-6.89;86.74
44697;BME280;57264;47.480;19.354;2024-01-11T04:36:04;100128.88;;;-6.79;87.08
44697;BME280;57264;47.480;19.354;2024-01-11T04:38:31;100126.75;;;-6.88;86.49
44697;BME280;57264;47.480;19.354;2024-01-11T04:40:56;100125.09;;;-7.04;86.65
44697;BME280;57264;47.480;19.354;2024-01-11T04:43:22;100117.28;;;-7.25;86.78
44697;BME280;57264;47.480;19.354;2024-01-11T04:45:47;100119.41;;;-7.32;86.91
44697;BME280;57264;47.480;19.354;2024-01-11T04:48:13;100125.69;;;-7.40;87.01
44697;BME280;57264;47.480;19.354;2024-01-11T04:50:39;100128.09;;;-6.95;87.39
44697;BME280;57264;47.480;19.354;2024-01-11T04:53:04;100125.47;;;-6.63;86.61
44697;BME280;57264;47.480;19.354;2024-01-11T04:55:30;100122.78;;;-6.66;86.54
44697;BME280;57264;47.480;19.354;2024-01-11T04:57:55;100118.19;;;-6.74;86.35
44697;BME280;57264;47.480;19.354;2024-01-11T05:00:21;100118.03;;;-6.60;87.58
44697;BME280;57264;47.480;19.354;2024-01-11T05:02:46;100111.22;;;-6.61;86.58
44697;BME280;57264;47.480;19.354;2024-01-11T05:05:12;100121.97;;;-6.65;86.06
44697;BME280;57264;47.480;19.354;2024-01-11T05:07:38;100116.16;;;-6.64;85.91
44697;BME280;57264;47.480;19.354;2024-01-11T05:10:04;100111.81;;;-6.67;85.92
44697;BME280;57264;47.480;19.354;2024-01-11T05:12:30;100115.84;;;-6.87;85.45
44697;BME280;57264;47.480;19.354;2024-01-11T05:14:58;100117.34;;;-6.90;85.77
44697;BME280;57264;47.480;19.354;2024-01-11T05:17:25;100121.88;;;-6.85;85.59
44697;BME280;57264;47.480;19.354;2024-01-11T05:19:51;100104.19;;;-6.85;85.30
44697;BME280;57264;47.480;19.354;2024-01-11T05:22:17;100110.41;;;-6.95;84.74
44697;BME280;57264;47.480;19.354;2024-01-11T05:24:43;100112.72;;;-6.99;84.91
44697;BME280;57264;47.480;19.354;2024-01-11T05:27:09;100122.22;;;-6.77;85.08
44697;BME280;57264;47.480;19.354;2024-01-11T05:29:34;100122.63;;;-6.53;84.87
44697;BME280;57264;47.480;19.354;2024-01-11T05:42:20;100114.41;;;-6.31;83.65
44697;BME280;57264;47.480;19.354;2024-01-11T05:44:46;100113.88;;;-6.42;83.95
44697;BME280;57264;47.480;19.354;2024-01-11T05:47:12;100118.16;;;-6.57;84.37
44697;BME280;57264;47.480;19.354;2024-01-11T06:02:33;100117.03;;;-6.80;85.32
44697;BME280;57264;47.480;19.354;2024-01-11T06:04:59;100124.69;;;-6.79;85.45
44697;BME280;57264;47.480;19.354;2024-01-11T06:07:24;100118.31;;;-6.88;85.25
44697;BME280;57264;47.480;19.354;2024-01-11T06:22:46;100104.91;;;-7.04;85.88
44697;BME280;57264;47.480;19.354;2024-01-11T06:25:11;100108.13;;;-6.90;85.60
44697;BME280;57264;47.480;19.354;2024-01-11T06:27:38;100111.28;;;-6.94;85.65
44697;BME280;57264;47.480;19.354;2024-01-11T06:30:04;100105.06;;;-6.84;85.26
44697;BME280;57264;47.480;19.354;2024-01-11T06:32:29;100112.78;;;-6.65;85.23
44697;BME280;57264;47.480;19.354;2024-01-11T06:34:55;100108.19;;;-6.72;85.25
44697;BME280;57264;47.480;19.354;2024-01-11T06:37:20;100102.97;;;-6.75;84.96
44697;BME280;57264;47.480;19.354;2024-01-11T06:39:46;100097.69;;;-6.63;84.63
44697;BME280;57264;47.480;19.354;2024-01-11T06:42:12;100091.97;;;-6.59;84.35
44697;BME280;57264;47.480;19.354;2024-01-11T06:44:37;100097.84;;;-6.60;84.08
44697;BME280;57264;47.480;19.354;2024-01-11T06:47:03;100088.59;;;-6.60;84.08
44697;BME280;57264;47.480;19.354;2024-01-11T06:49:30;100092.78;;;-6.60;84.02
44697;BME280;57264;47.480;19.354;2024-01-11T06:51:56;100091.91;;;-6.61;84.08
44697;BME280;57264;47.480;19.354;2024-01-11T06:54:22;100088.09;;;-6.53;84.14
44697;BME280;57264;47.480;19.354;2024-01-11T06:56:47;100096.34;;;-6.39;83.82
44697;BME280;57264;47.480;19.354;2024-01-11T06:59:13;100090.78;;;-6.32;83.98
44697;BME280;57264;47.480;19.354;2024-01-11T07:01:38;100087.31;;;-6.34;83.98
44697;BME280;57264;47.480;19.354;2024-01-11T07:04:04;100092.69;;;-6.28;84.04
44697;BME280;57264;47.480;19.354;2024-01-11T07:06:29;100093.13;;;-6.01;83.47
44697;BME280;57264;47.480;19.354;2024-01-11T07:08:55;100090.97;;;-5.91;82.91
44697;BME280;57264;47.480;19.354;2024-01-11T07:11:20;100088.16;;;-5.80;82.00
44697;BME280;57264;47.480;19.354;2024-01-11T07:13:46;100093.22;;;-5.80;82.10
44697;BME280;57264;47.480;19.354;2024-01-11T07:16:11;100087.72;;;-5.71;82.17
44697;BME280;57264;47.480;19.354;2024-01-11T07:18:38;100085.47;;;-5.65;81.55
44697;BME280;57264;47.480;19.354;2024-01-11T07:21:04;100092.25;;;-5.64;81.84
44697;BME280;57264;47.480;19.354;2024-01-11T07:23:31;100095.66;;;-5.63;81.71
44697;BME280;57264;47.480;19.354;2024-01-11T07:25:56;100090.38;;;-5.68;81.17
44697;BME280;57264;47.480;19.354;2024-01-11T07:28:22;100082.19;;;-5.62;81.51
44697;BME280;57264;47.480;19.354;2024-01-11T07:30:51;100090.78;;;-5.59;81.45
44697;BME280;57264;47.480;19.354;2024-01-11T07:33:19;100090.38;;;-5.50;81.10
44697;BME280;57264;47.480;19.354;2024-01-11T07:35:44;100087.38;;;-5.41;80.94
44697;BME280;57264;47.480;19.354;2024-01-11T07:38:11;100085.19;;;-5.34;80.83
44697;BME280;57264;47.480;19.354;2024-01-11T07:40:36;100087.16;;;-5.27;80.49
44697;BME280;57264;47.480;19.354;2024-01-11T07:43:02;100079.03;;;-5.20;80.52
44697;BME280;57264;47.480;19.354;2024-01-11T07:45:29;100089.38;;;-5.15;80.53
44697;BME280;57264;47.480;19.354;2024-01-11T07:47:55;100084.38;;;-5.13;80.32
44697;BME280;57264;47.480;19.354;2024-01-11T07:50:21;100088.84;;;-5.08;80.20
44697;BME280;57264;47.480;19.354;2024-01-11T07:52:47;100087.16;;;-5.07;80.35
44697;BME280;57264;47.480;19.354;2024-01-11T07:55:12;100084.59;;;-5.09;80.35
44697;BME280;57264;47.480;19.354;2024-01-11T07:57:38;100078.97;;;-5.02;79.98
44697;BME280;57264;47.480;19.354;2024-01-11T08:00:05;100070.44;;;-5.04;79.43
44697;BME280;57264;47.480;19.354;2024-01-11T08:02:34;100063.50;;;-5.08;80.07
44697;BME280;57264;47.480;19.354;2024-01-11T08:05:00;100058.44;;;-5.08;80.38
44697;BME280;57264;47.480;19.354;2024-01-11T08:07:28;100053.53;;;-5.05;79.93
44697;BME280;57264;47.480;19.354;2024-01-11T08:09:55;100059.44;;;-5.04;80.16
44697;BME280;57264;47.480;19.354;2024-01-11T08:12:20;100063.97;;;-4.97;80.19
44697;BME280;57264;47.480;19.354;2024-01-11T08:14:46;100053.31;;;-4.90;79.68
44697;BME280;57264;47.480;19.354;2024-01-11T08:17:18;100049.84;;;-4.92;79.97
44697;BME280;57264;47.480;19.354;2024-01-11T08:19:44;100043.56;;;-4.81;79.72
44697;BME280;57264;47.480;19.354;2024-01-11T08:22:10;100047.03;;;-4.79;80.46
44697;BME280;57264;47.480;19.354;2024-01-11T08:24:36;100046.34;;;-4.75;80.19
44697;BME280;57264;47.480;19.354;2024-01-11T08:27:02;100035.72;;;-4.66;80.18
44697;BME280;57264;47.480;19.354;2024-01-11T08:29:28;100030.84;;;-4.61;80.00
44697;BME280;57264;47.480;19.354;2024-01-11T08:31:55;100026.94;;;-4.53;80.01
44697;BME280;57264;47.480;19.354;2024-01-11T08:34:22;100027.38;;;-4.42;80.15
44697;BME280;57264;47.480;19.354;2024-01-11T08:36:48;100022.59;;;-4.35;79.30
44697;BME280;57264;47.480;19.354;2024-01-11T08:39:13;100021.38;;;-4.24;79.12
44697;BME280;57264;47.480;19.354;2024-01-11T08:41:42;100019.09;;;-4.16;78.74
44697;BME280;57264;47.480;19.354;2024-01-11T08:44:07;100023.56;;;-4.10;79.21
44697;BME280;57264;47.480;19.354;2024-01-11T08:46:33;100016.97;;;-4.05;79.14
44697;BME280;57264;47.480;19.354;2024-01-11T08:49:00;100016.47;;;-3.97;79.14
44697;BME280;57264;47.480;19.354;2024-01-11T08:51:27;100026.13;;;-3.88;78.48
44697;BME280;57264;47.480;19.354;2024-01-11T08:53:54;100027.25;;;-3.80;78.55
44697;BME280;57264;47.480;19.354;2024-01-11T08:56:23;100034.19;;;-3.76;78.55
44697;BME280;57264;47.480;19.354;2024-01-11T08:58:54;100034.47;;;-3.68;78.00
44697;BME280;57264;47.480;19.354;2024-01-11T09:01:22;100027.09;;;-3.60;77.70
44697;BME280;57264;47.480;19.354;2024-01-11T09:03:52;100023.09;;;-3.55;76.79
44697;BME280;57264;47.480;19.354;2024-01-11T09:06:18;100032.41;;;-3.54;76.72
44697;BME280;57264;47.480;19.354;2024-01-11T09:08:43;100022.97;;;-3.58;77.07
44697;BME280;57264;47.480;19.354;2024-01-11T09:11:10;100021.56;;;-3.50;77.03
44697;BME280;57264;47.480;19.354;2024-01-11T09:13:37;100014.09;;;-3.46;76.04
44697;BME280;57264;47.480;19.354;2024-01-11T09:16:03;100007.44;;;-3.43;75.78
44697;BME280;57264;47.480;19.354;2024-01-11T09:18:28;100006.75;;;-3.38;75.79
44697;BME280;57264;47.480;19.354;2024-01-11T09:20:54;100007.91;;;-3.30;76.51
44697;BME280;57264;47.480;19.354;2024-01-11T09:23:19;99997.03;;;-3.26;75.60
44697;BME280;57264;47.480;19.354;2024-01-11T09:25:45;100000.81;;;-3.14;74.72
44697;BME280;57264;47.480;19.354;2024-01-11T09:28:10;100000.41;;;-3.01;74.66
44697;BME280;57264;47.480;19.354;2024-01-11T09:30:36;99979.38;;;-2.97;74.20
44697;BME280;57264;47.480;19.354;2024-01-11T09:33:01;99976.31;;;-2.87;73.05
44697;BME280;57264;47.480;19.354;2024-01-11T09:35:28;99967.34;;;-2.77;72.88
44697;BME280;57264;47.480;19.354;2024-01-11T09:37:53;99949.88;;;-2.66;72.21
44697;BME280;57264;47.480;19.354;2024-01-11T09:40:19;99951.88;;;-2.56;70.18
44697;BME280;57264;47.480;19.354;2024-01-11T09:42:45;99940.38;;;-2.45;71.62
44697;BME280;57264;47.480;19.354;2024-01-11T09:45:14;99936.25;;;-2.41;70.54
44697;BME280;57264;47.480;19.354;2024-01-11T09:47:46;99929.63;;;-2.36;70.31
44697;BME280;57264;47.480;19.354;2024-01-11T09:50:13;99921.28;;;-2.31;68.44
44697;BME280;57264;47.480;19.354;2024-01-11T09:52:47;99921.28;;;-2.31;69.22
44697;BME280;57264;47.480;19.354;2024-01-11T09:55:17;99916.25;;;-2.29;70.05
44697;BME280;57264;47.480;19.354;2024-01-11T09:57:47;99918.00;;;-2.27;71.06
44697;BME280;57264;47.480;19.354;2024-01-11T10:00:16;99918.16;;;-2.22;70.81
44697;BME280;57264;47.480;19.354;2024-01-11T10:02:45;99912.41;;;-2.15;70.18
44697;BME280;57264;47.480;19.354;2024-01-11T10:05:11;99907.63;;;-2.06;70.36
44697;BME280;57264;47.480;19.354;2024-01-11T10:07:39;99896.59;;;-2.05;70.30
44697;BME280;57264;47.480;19.354;2024-01-11T10:12:36;99890.16;;;-1.93;71.08
44697;BME280;57264;47.480;19.354;2024-01-11T10:15:05;99885.16;;;-1.89;71.26
44697;BME280;57264;47.480;19.354;2024-01-11T10:17:36;99879.44;;;-1.82;71.80
44697;BME280;57264;47.480;19.354;2024-01-11T10:20:02;99868.34;;;-1.84;71.01
44697;BME280;57264;47.480;19.354;2024-01-11T10:22:28;99872.03;;;-1.73;71.40
44697;BME280;57264;47.480;19.354;2024-01-11T10:25:08;99866.38;;;-1.62;70.84
44697;BME280;57264;47.480;19.354;2024-01-11T10:27:34;99863.22;;;-1.52;69.03
44697;BME280;57264;47.480;19.354;2024-01-11T10:29:59;99864.38;;;-1.41;68.68
44697;BME280;57264;47.480;19.354;2024-01-11T10:32:28;99862.56;;;-1.45;68.48
44697;BME280;57264;47.480;19.354;2024-01-11T10:34:53;99867.03;;;-1.35;68.38
44697;BME280;57264;47.480;19.354;2024-01-11T10:37:21;99852.94;;;-1.22;68.76
44697;BME280;57264;47.480;19.354;2024-01-11T10:39:48;99841.19;;;-1.15;67.63
44697;BME280;57264;47.480;19.354;2024-01-11T10:42:18;99847.97;;;-1.16;67.71
44697;BME280;57264;47.480;19.354;2024-01-11T10:44:48;99848.97;;;-1.11;67.54
44697;BME280;57264;47.480;19.354;2024-01-11T10:47:19;99834.78;;;-1.00;65.52
44697;BME280;57264;47.480;19.354;2024-01-11T10:49:50;99825.59;;;-0.93;64.54
44697;BME280;57264;47.480;19.354;2024-01-11T10:52:19;99829.16;;;-0.85;64.30
44697;BME280;57264;47.480;19.354;2024-01-11T10:54:48;99820.66;;;-0.85;62.66
44697;BME280;57264;47.480;19.354;2024-01-11T10:57:16;99807.31;;;-0.73;61.85
44697;BME280;57264;47.480;19.354;2024-01-11T10:59:43;99792.09;;;-0.70;62.19
44697;BME280;57264;47.480;19.354;2024-01-11T11:02:09;99795.72;;;-0.59;61.61
44697;BME280;57264;47.480;19.354;2024-01-11T11:04:38;99789.66;;;-0.64;61.96
44697;BME280;57264;47.480;19.354;2024-01-11T11:07:05;99787.31;;;-0.55;61.94
44697;BME280;57264;47.480;19.354;2024-01-11T11:09:34;99788.31;;;-0.47;60.90
44697;BME280;57264;47.480;19.354;2024-01-11T11:12:00;99798.56;;;-0.44;59.21
44697;BME280;57264;47.480;19.354;2024-01-11T11:14:28;99781.72;;;-0.36;59.64
44697;BME280;57264;47.480;19.354;2024-01-11T11:16:54;99786.00;;;-0.35;59.00
44697;BME280;57264;47.480;19.354;2024-01-11T11:19:20;99787.91;;;-0.25;57.99
44697;BME280;57264;47.480;19.354;2024-01-11T11:21:48;99782.94;;;-0.18;57.83
44697;BME280;57264;47.480;19.354;2024-01-11T11:24:16;99790.53;;;-0.21;57.47
44697;BME280;57264;47.480;19.354;2024-01-11T11:26:44;99781.31;;;-0.13;57.66
44697;BME280;57264;47.480;19.354;2024-01-11T11:29:10;99791.59;;;-0.10;56.98
44697;BME280;57264;47.480;19.354;2024-01-11T11:31:37;99777.25;;;-0.04;55.74
44697;BME280;57264;47.480;19.354;2024-01-11T11:34:04;99773.22;;;0.09;55.71
44697;BME280;57264;47.480;19.354;2024-01-11T11:36:30;99762.22;;;0.13;53.11
44697;BME280;57264;47.480;19.354;2024-01-11T11:39:00;99758.81;;;0.13;52.32
44697;BME280;57264;47.480;19.354;2024-01-11T11:41:27;99751.22;;;0.17;52.93
44697;BME280;57264;47.480;19.354;2024-01-11T11:43:52;99749.66;;;0.26;53.46
44697;BME280;57264;47.480;19.354;2024-01-11T11:46:18;99742.06;;;0.29;51.92
44697;BME280;57264;47.480;19.354;2024-01-11T11:48:49;99751.63;;;0.40;51.43
44697;BME280;57264;47.480;19.354;2024-01-11T11:51:17;99762.66;;;0.39;50.77
44697;BME280;57264;47.480;19.354;2024-01-11T11:53:45;99761.88;;;0.43;50.17
44697;BME280;57264;47.480;19.354;2024-01-11T11:56:11;99755.13;;;0.47;50.19
44697;BME280;57264;47.480;19.354;2024-01-11T11:58:38;99740.72;;;0.52;50.86
44697;BME280;57264;47.480;19.354;2024-01-11T12:01:06;99730.53;;;0.55;50.02
44697;BME280;57264;47.480;19.354;2024-01-11T12:03:34;99725.47;;;0.57;50.50
44697;BME280;57264;47.480;19.354;2024-01-11T12:06:04;99725.41;;;0.55;50.40
44697;BME280;57264;47.480;19.354;2024-01-11T12:08:33;99731.56;;;0.66;50.05
44697;BME280;57264;47.480;19.354;2024-01-11T12:10:59;99724.78;;;0.68;49.77
44697;BME280;57264;47.480;19.354;2024-01-11T12:13:25;99715.53;;;0.77;49.86
44697;BME280;57264;47.480;19.354;2024-01-11T12:15:51;99708.03;;;0.87;49.05
44697;BME280;57264;47.480;19.354;2024-01-11T12:18:17;99715.75;;;0.95;48.44
44697;BME280;57264;47.480;19.354;2024-01-11T12:20:43;99722.63;;;0.97;47.59
44697;BME280;57264;47.480;19.354;2024-01-11T12:23:08;99712.34;;;0.94;46.32
44697;BME280;57264;47.480;19.354;2024-01-11T12:25:34;99705.41;;;0.86;46.53
44697;BME280;57264;47.480;19.354;2024-01-11T12:28:00;99702.00;;;0.85;45.63
44697;BME280;57264;47.480;19.354;2024-01-11T12:30:26;99704.66;;;0.91;45.64
44697;BME280;57264;47.480;19.354;2024-01-11T12:32:53;99685.13;;;0.98;46.29
44697;BME280;57264;47.480;19.354;2024-01-11T12:35:19;99687.72;;;1.00;45.96
44697;BME280;57264;47.480;19.354;2024-01-11T12:38:11;99700.72;;;1.15;47.88
44697;BME280;57264;47.480;19.354;2024-01-11T12:40:37;99710.22;;;1.27;46.58
44697;BME280;57264;47.480;19.354;2024-01-11T12:43:07;99706.13;;;1.42;46.98
44697;BME280;57264;47.480;19.354;2024-01-11T12:45:34;99714.47;;;1.26;45.12
44697;BME280;57264;47.480;19.354;2024-01-11T12:48:01;99704.19;;;1.20;46.63
44697;BME280;57264;47.480;19.354;2024-01-11T12:50:31;99704.13;;;1.17;47.06
44697;BME280;57264;47.480;19.354;2024-01-11T12:53:14;99692.16;;;1.14;47.46
44697;BME280;57264;47.480;19.354;2024-01-11T12:55:46;99691.28;;;1.14;47.14
44697;BME280;57264;47.480;19.354;2024-01-11T12:58:12;99695.66;;;1.19;47.86
44697;BME280;57264;47.480;19.354;2024-01-11T13:00:38;99687.06;;;1.17;46.45
44697;BME280;57264;47.480;19.354;2024-01-11T13:03:04;99662.44;;;1.26;47.70
44697;BME280;57264;47.480;19.354;2024-01-11T13:05:30;99669.25;;;1.25;46.89
44697;BME280;57264;47.480;19.354;2024-01-11T13:08:01;99672.66;;;1.26;47.64
44697;BME280;57264;47.480;19.354;2024-01-11T13:10:28;99659.69;;;1.07;46.27
44697;BME280;57264;47.480;19.354;2024-01-11T13:12:54;99657.94;;;1.06;46.55
44697;BME280;57264;47.480;19.354;2024-01-11T13:15:20;99657.13;;;1.10;46.67
44697;BME280;57264;47.480;19.354;2024-01-11T13:17:45;99637.66;;;1.21;47.12
44697;BME280;57264;47.480;19.354;2024-01-11T13:20:11;99636.03;;;1.30;46.80